Time;durP1;ratioP1;P1;durP2;ratioP2;P2;SDS_P1;SDS_P2;PMS_P1;PMS_P2;Temp;Humidity;BMP_temperature;BMP_pressure;BME280_temperature;BME280_humidity;BME280_pressure;Samples;Min_cycle;Max_cycle;Signal;HPM_P1;HPM_P2
2022/06/03 00:02:23;;;;;;;1.80;1.70;;;18.30;67.40;;;;;;5064706;28;20451;-68
2022/06/03 00:05:05;;;;;;;1.60;1.50;;;18.20;67.20;;;;;;5073011;28;20472;-67
2022/06/03 00:07:46;;;;;;;1.80;1.67;;;18.20;67.00;;;;;;5068395;28;20465;-67
2022/06/03 00:10:30;;;;;;;1.47;1.37;;;18.20;66.90;;;;;;5070030;28;20446;-68
2022/06/03 00:13:33;;;;;;;1.63;1.50;;;18.20;66.80;;;;;;5071299;28;20446;-68
2022/06/03 00:16:18;;;;;;;1.60;1.50;;;18.20;67.10;;;;;;5050753;28;20532;-68
2022/06/03 00:18:59;;;;;;;1.60;1.50;;;18.20;67.20;;;;;;5061616;28;20552;-68
2022/06/03 00:21:49;;;;;;;1.70;1.60;;;18.20;67.10;;;;;;5075675;28;20452;-69
2022/06/03 00:24:39;;;;;;;1.70;1.60;;;18.10;67.10;;;;;;5067491;28;20548;-68
2022/06/03 00:27:08;;;;;;;1.60;1.50;;;18.10;66.90;;;;;;5068129;28;21007;-67
2022/06/03 00:29:41;;;;;;;1.80;1.70;;;18.10;66.40;;;;;;5065705;28;20882;-68
2022/06/03 00:32:44;;;;;;;1.40;1.30;;;18.10;66.60;;;;;;5066960;28;20469;-69
2022/06/03 00:35:33;;;;;;;1.67;1.57;;;18.10;66.60;;;;;;5059244;28;20441;-69
2022/06/03 00:38:22;;;;;;;1.50;1.50;;;18.10;66.50;;;;;;5058045;28;20832;-69
2022/06/03 00:41:02;;;;;;;2.07;1.97;;;18.10;66.60;;;;;;5059102;28;20931;-67
2022/06/03 00:44:09;;;;;;;9.60;2.10;;;18.10;66.70;;;;;;5067528;28;20500;-68
2022/06/03 00:46:43;;;;;;;1.90;1.80;;;18.10;66.60;;;;;;5068789;28;20450;-67
2022/06/03 00:49:39;;;;;;;1.50;1.40;;;18.00;66.70;;;;;;5069996;28;20437;-68
2022/06/03 00:52:26;;;;;;;1.73;1.63;;;18.00;66.90;;;;;;5062916;28;20468;-68
2022/06/03 00:55:41;;;;;;;1.80;1.70;;;18.00;66.80;;;;;;5065450;28;20544;-68
2022/06/03 00:58:25;;;;;;;1.90;1.80;;;17.90;66.80;;;;;;5035975;28;20812;-67
2022/06/03 01:01:03;;;;;;;1.90;1.80;;;17.90;66.70;;;;;;5076257;28;20454;-68
2022/06/03 01:03:51;;;;;;;1.57;1.47;;;17.90;67.00;;;;;;5052070;28;20478;-69
2022/06/03 01:06:44;;;;;;;1.73;1.60;;;17.90;67.00;;;;;;5074194;28;20469;-67
2022/06/03 01:09:30;;;;;;;2.00;1.90;;;17.80;67.10;;;;;;5066267;28;20446;-67
2022/06/03 01:12:08;;;;;;;2.13;1.50;;;17.80;67.60;;;;;;5072905;28;20445;-69
2022/06/03 01:14:37;;;;;;;2.27;1.80;;;17.70;67.40;;;;;;5051398;28;20453;-67
2022/06/03 01:17:25;;;;;;;2.97;1.80;;;17.70;67.50;;;;;;5076117;28;20895;-69
2022/06/03 01:20:01;;;;;;;1.77;1.67;;;17.70;68.40;;;;;;5049658;28;20450;-68
2022/06/03 01:23:00;;;;;;;2.47;2.27;;;17.60;67.80;;;;;;5064203;28;20853;-70
2022/06/03 01:25:51;;;;;;;2.00;1.80;;;17.60;67.90;;;;;;5071615;28;20465;-67
2022/06/03 01:28:34;;;;;;;2.10;1.80;;;17.60;67.80;;;;;;5064251;28;20481;-67
2022/06/03 01:31:22;;;;;;;3.13;1.93;;;17.60;67.80;;;;;;5069359;28;20521;-67
2022/06/03 01:34:02;;;;;;;1.87;1.67;;;17.60;68.10;;;;;;5065138;28;20515;-71
2022/06/03 01:36:40;;;;;;;1.80;1.70;;;17.50;68.10;;;;;;5068149;28;20741;-68
2022/06/03 01:39:12;;;;;;;1.90;1.80;;;17.50;68.20;;;;;;5068870;28;20464;-65
2022/06/03 01:41:46;;;;;;;2.77;1.57;;;17.50;68.30;;;;;;5049723;28;20513;-68
2022/06/03 01:45:11;;;;;;;2.00;1.90;;;17.40;68.20;;;;;;5063684;28;20851;-68
2022/06/03 01:48:11;;;;;;;1.70;1.60;;;17.40;68.20;;;;;;5022261;28;20970;-67
2022/06/03 01:50:42;;;;;;;1.43;1.33;;;17.40;68.40;;;;;;5047023;28;20549;-68
2022/06/03 01:53:23;;;;;;;1.50;1.50;;;17.30;68.50;;;;;;5063106;28;20445;-68
2022/06/03 01:56:06;;;;;;;6.03;2.10;;;17.30;68.50;;;;;;5064026;28;20450;-68
2022/06/03 01:58:51;;;;;;;1.67;1.57;;;17.30;68.80;;;;;;5048469;28;20542;-68
2022/06/03 02:01:39;;;;;;;1.77;1.67;;;17.30;69.00;;;;;;5056484;28;20800;-68
2022/06/03 02:04:24;;;;;;;1.80;1.70;;;17.20;68.90;;;;;;5078582;28;20465;-67
2022/06/03 02:07:01;;;;;;;1.97;1.87;;;17.20;68.90;;;;;;5065676;28;20456;-68
2022/06/03 02:10:00;;;;;;;2.20;1.77;;;17.20;69.00;;;;;;5074601;28;20523;-68
2022/06/03 02:12:53;;;;;;;1.80;1.70;;;17.20;69.00;;;;;;5071650;28;20444;-67
2022/06/03 02:15:24;;;;;;;2.10;1.90;;;17.10;68.90;;;;;;5079220;28;20476;-68
2022/06/03 02:18:08;;;;;;;1.90;1.70;;;17.10;69.10;;;;;;5074276;28;20445;-68
2022/06/03 02:20:53;;;;;;;2.03;1.93;;;17.10;69.50;;;;;;5051699;28;20869;-68
2022/06/03 02:23:43;;;;;;;1.90;1.80;;;17.00;69.70;;;;;;5053149;28;20458;-68
2022/06/03 02:26:23;;;;;;;2.47;1.57;;;16.90;70.50;;;;;;5050771;28;20463;-68
2022/06/03 02:32:17;;;;;;;3.80;1.70;;;16.90;70.30;;;;;;5067821;28;20458;-67
2022/06/03 02:35:01;;;;;;;1.87;1.73;;;16.80;69.90;;;;;;5069000;28;20445;-68
2022/06/03 02:38:07;;;;;;;1.70;1.60;;;16.90;70.30;;;;;;5070841;28;20464;-67
2022/06/03 02:41:00;;;;;;;1.80;1.70;;;16.80;70.20;;;;;;5071553;28;20453;-66
2022/06/03 02:43:58;;;;;;;2.03;1.93;;;16.80;70.00;;;;;;5068714;28;20463;-68
2022/06/03 02:46:29;;;;;;;1.80;1.70;;;16.80;70.90;;;;;;5042369;28;20985;-68
2022/06/03 02:49:15;;;;;;;1.57;1.47;;;16.80;70.70;;;;;;5070439;28;20452;-67
2022/06/03 02:52:02;;;;;;;1.70;1.60;;;16.80;70.40;;;;;;5077126;28;20441;-68
2022/06/03 02:55:06;;;;;;;2.13;2.03;;;16.70;70.20;;;;;;5070685;28;20452;-69
2022/06/03 02:57:47;;;;;;;1.97;1.77;;;16.70;70.30;;;;;;5067163;28;20449;-68
2022/06/03 03:00:45;;;;;;;2.03;1.90;;;16.70;70.10;;;;;;5068676;28;20444;-68
2022/06/03 03:03:52;;;;;;;1.60;1.50;;;16.60;70.20;;;;;;5069984;28;20437;-67
2022/06/03 03:06:29;;;;;;;1.90;1.80;;;16.70;70.80;;;;;;5018444;28;20454;-68
2022/06/03 03:09:14;;;;;;;1.80;1.70;;;16.60;70.70;;;;;;5036443;28;20514;-68
2022/06/03 03:12:10;;;;;;;1.87;1.77;;;16.60;70.80;;;;;;5052589;28;20948;-67
2022/06/03 03:14:54;;;;;;;1.90;1.80;;;16.60;70.40;;;;;;5065502;28;20457;-69
2022/06/03 03:17:31;;;;;;;2.03;1.53;;;16.60;71.10;;;;;;5051101;28;20456;-69
2022/06/03 03:20:34;;;;;;;2.10;1.90;;;16.60;71.50;;;;;;5048929;28;20978;-67
2022/06/03 03:23:19;;;;;;;1.80;1.70;;;16.60;71.10;;;;;;5069817;28;20623;-68
2022/06/03 03:26:26;;;;;;;1.80;1.70;;;16.50;70.90;;;;;;5070323;28;20457;-68
2022/06/03 03:29:22;;;;;;;2.80;2.07;;;16.50;70.80;;;;;;5070241;28;20481;-68
2022/06/03 03:31:48;;;;;;;1.97;1.87;;;16.50;70.80;;;;;;5080201;28;20441;-67
2022/06/03 03:34:38;;;;;;;1.80;1.70;;;16.50;71.00;;;;;;5069045;28;20449;-69
2022/06/03 03:37:13;;;;;;;1.70;1.47;;;16.50;70.80;;;;;;5074540;28;20218;-66
2022/06/03 03:40:00;;;;;;;2.60;1.77;;;16.50;70.60;;;;;;5070186;28;20679;-69
2022/06/03 03:42:37;;;;;;;1.70;1.60;;;16.40;71.20;;;;;;5068725;28;20972;-66
2022/06/03 03:45:20;;;;;;;1.67;1.57;;;16.40;71.10;;;;;;5071299;28;20552;-66
2022/06/03 03:48:07;;;;;;;2.10;2.00;;;16.40;71.00;;;;;;5062872;28;20454;-66
2022/06/03 03:50:48;;;;;;;3.20;2.07;;;16.40;71.00;;;;;;5070385;28;20977;-66
2022/06/03 03:53:43;;;;;;;2.13;2.03;;;16.40;71.30;;;;;;5065634;28;20989;-67
2022/06/03 03:56:35;;;;;;;2.10;1.80;;;16.40;71.10;;;;;;5068796;28;20440;-66
2022/06/03 03:59:26;;;;;;;2.17;1.90;;;16.40;71.40;;;;;;5075599;28;20969;-66
2022/06/03 04:02:07;;;;;;;1.93;1.83;;;16.40;71.10;;;;;;5080975;28;20969;-67
2022/06/03 04:04:53;;;;;;;2.43;1.90;;;16.40;71.50;;;;;;5049241;28;20469;-66
2022/06/03 04:07:41;;;;;;;1.97;1.87;;;16.40;71.40;;;;;;5074498;28;20456;-68
2022/06/03 04:10:30;;;;;;;1.97;1.87;;;16.40;71.60;;;;;;5073800;28;20670;-68
2022/06/03 04:13:19;;;;;;;1.90;1.80;;;16.40;71.40;;;;;;5070233;28;20449;-68
2022/06/03 04:16:22;;;;;;;1.97;1.87;;;16.40;71.40;;;;;;5070235;28;20528;-69
2022/06/03 04:18:56;;;;;;;2.50;2.13;;;16.40;71.50;;;;;;5069564;28;20588;-68
2022/06/03 04:21:35;;;;;;;1.73;1.63;;;16.40;72.00;;;;;;5070058;28;20460;-67
2022/06/03 04:24:19;;;;;;;2.73;1.80;;;16.40;71.70;;;;;;5068289;28;20470;-68
2022/06/03 04:27:03;;;;;;;1.90;1.80;;;16.40;72.10;;;;;;5062256;28;20464;-68
2022/06/03 04:29:35;;;;;;;2.23;2.00;;;16.40;72.20;;;;;;5068155;28;20449;-67
2022/06/03 04:32:28;;;;;;;2.07;1.90;;;16.40;72.00;;;;;;5082135;28;20507;-68
2022/06/03 04:35:24;;;;;;;1.97;1.87;;;16.40;72.80;;;;;;5063972;28;20516;-69
2022/06/03 04:38:20;;;;;;;1.97;1.87;;;16.40;72.50;;;;;;5051306;28;20473;-68
2022/06/03 04:41:01;;;;;;;2.00;1.80;;;16.50;72.90;;;;;;5074631;28;20482;-67
2022/06/03 04:43:57;;;;;;;2.00;1.90;;;16.50;73.00;;;;;;5059892;28;20453;-67
2022/06/03 04:47:04;;;;;;;1.73;1.63;;;16.50;73.30;;;;;;5058653;28;20446;-71
2022/06/03 04:50:07;;;;;;;2.47;2.27;;;16.50;74.00;;;;;;5061731;28;20456;-68
2022/06/03 04:53:11;;;;;;;2.00;1.90;;;16.50;74.10;;;;;;5069558;28;20445;-68
2022/06/03 04:56:04;;;;;;;2.00;1.90;;;16.60;75.10;;;;;;5076040;28;20956;-67
2022/06/03 04:59:11;;;;;;;2.07;1.97;;;16.60;74.90;;;;;;5060909;28;20455;-68
2022/06/03 05:02:28;;;;;;;1.80;1.70;;;16.60;74.60;;;;;;5060909;28;20473;-68
2022/06/03 05:05:17;;;;;;;1.60;1.50;;;16.60;74.80;;;;;;5002380;28;20463;-69
2022/06/03 05:08:11;;;;;;;2.30;2.10;;;16.70;75.50;;;;;;5045043;28;20481;-70
2022/06/03 05:10:55;;;;;;;1.93;1.83;;;16.70;75.10;;;;;;5069949;28;20829;-68
2022/06/03 05:13:38;;;;;;;1.47;1.37;;;16.70;75.50;;;;;;5069559;28;21000;-67
2022/06/03 05:16:28;;;;;;;1.70;1.57;;;16.80;75.60;;;;;;5073698;28;20485;-67
2022/06/03 05:18:54;;;;;;;1.83;1.73;;;16.80;75.70;;;;;;5073282;28;20465;-68
2022/06/03 05:21:31;;;;;;;2.20;2.00;;;16.80;75.80;;;;;;5059601;28;20462;-68
2022/06/03 05:23:59;;;;;;;1.97;1.87;;;16.90;76.70;;;;;;5059925;28;20870;-68
2022/06/03 05:26:34;;;;;;;2.00;1.80;;;16.90;76.50;;;;;;5078070;28;20455;-69
2022/06/03 05:29:11;;;;;;;2.30;1.73;;;16.90;76.70;;;;;;5063285;28;20483;-71
2022/06/03 05:32:01;;;;;;;2.00;1.80;;;16.90;76.90;;;;;;5063550;28;20548;-67
2022/06/03 05:34:48;;;;;;;2.07;1.77;;;17.00;77.30;;;;;;5058159;28;20924;-70
2022/06/03 05:37:48;;;;;;;2.00;1.90;;;17.00;77.00;;;;;;5053861;28;20856;-68
2022/06/03 05:40:18;;;;;;;4.20;1.67;;;17.00;77.20;;;;;;5061796;28;20479;-68
2022/06/03 05:43:01;;;;;;;2.73;2.20;;;17.00;77.50;;;;;;5064274;28;20445;-68
2022/06/03 05:45:46;;;;;;;2.10;2.00;;;17.10;77.30;;;;;;5062586;28;20469;-69
2022/06/03 05:48:38;;;;;;;3.30;1.70;;;17.10;77.50;;;;;;5072435;28;20456;-67
2022/06/03 05:51:16;;;;;;;1.90;1.80;;;17.10;77.90;;;;;;5070086;28;20446;-68
2022/06/03 05:53:53;;;;;;;2.07;1.90;;;17.10;77.70;;;;;;5078418;28;20511;-68
2022/06/03 05:56:43;;;;;;;1.83;1.70;;;17.20;77.60;;;;;;5064318;28;20813;-71
2022/06/03 05:59:34;;;;;;;2.90;1.57;;;17.20;77.10;;;;;;5054131;28;20945;-67
2022/06/03 06:02:16;;;;;;;5.73;2.10;;;17.20;77.90;;;;;;5060895;28;20458;-69
2022/06/03 06:05:19;;;;;;;3.57;1.50;;;17.30;78.00;;;;;;5066022;28;20965;-69
2022/06/03 06:07:51;;;;;;;2.50;1.97;;;17.30;77.80;;;;;;5081336;28;20478;-68
2022/06/03 06:10:45;;;;;;;1.63;1.53;;;17.40;78.10;;;;;;5064228;28;20979;-68
2022/06/03 06:13:35;;;;;;;1.80;1.70;;;17.40;77.80;;;;;;5065019;28;21075;-71
2022/06/03 06:16:03;;;;;;;1.50;1.40;;;17.40;77.70;;;;;;5069327;28;20447;-69
2022/06/03 06:18:58;;;;;;;2.10;1.93;;;17.50;77.90;;;;;;5061958;28;20533;-68
2022/06/03 06:21:46;;;;;;;1.67;1.57;;;17.50;78.30;;;;;;5067677;28;20449;-69
2022/06/03 06:24:40;;;;;;;1.90;1.80;;;17.60;78.70;;;;;;5062029;28;20485;-68
2022/06/03 06:27:22;;;;;;;2.17;1.87;;;17.60;78.40;;;;;;5062808;28;20461;-66
2022/06/03 06:30:19;;;;;;;1.63;1.53;;;17.60;78.30;;;;;;5060048;28;20455;-71
2022/06/03 06:33:23;;;;;;;2.53;2.10;;;17.70;78.20;;;;;;5070124;28;20450;-70
2022/06/03 06:36:07;;;;;;;1.57;1.47;;;17.70;78.10;;;;;;5055658;28;20958;-71
2022/06/03 06:38:42;;;;;;;1.70;1.60;;;17.80;78.20;;;;;;5069340;28;20555;-69
2022/06/03 06:41:13;;;;;;;3.40;2.13;;;17.80;78.40;;;;;;5066514;28;20462;-69
2022/06/03 06:44:00;;;;;;;3.40;1.70;;;17.80;78.20;;;;;;5069851;28;20449;-70
2022/06/03 06:47:04;;;;;;;1.60;1.50;;;17.90;78.00;;;;;;5065200;28;20892;-68
2022/06/03 06:49:35;;;;;;;2.00;1.70;;;17.90;78.20;;;;;;5065613;28;20942;-71
2022/06/03 06:52:04;;;;;;;1.70;1.60;;;17.90;77.50;;;;;;5078426;28;20461;-68
2022/06/03 06:55:27;;;;;;;1.80;1.70;;;17.90;77.70;;;;;;5073308;28;20458;-68
2022/06/03 06:57:57;;;;;;;2.00;1.90;;;18.00;77.90;;;;;;5053544;28;20485;-67
2022/06/03 07:00:37;;;;;;;1.70;1.60;;;18.00;77.70;;;;;;5042273;28;20458;-68
2022/06/03 07:03:39;;;;;;;2.17;1.97;;;18.10;78.20;;;;;;5053333;28;20449;-67
2022/06/03 07:06:22;;;;;;;5.97;2.00;;;18.10;78.30;;;;;;5062023;28;20462;-67
2022/06/03 07:09:11;;;;;;;1.87;1.70;;;18.20;78.10;;;;;;5072035;28;20438;-69
2022/06/03 07:11:53;;;;;;;2.30;2.10;;;18.20;77.90;;;;;;5059862;28;20834;-69
2022/06/03 07:14:26;;;;;;;2.00;1.90;;;18.20;77.90;;;;;;5060534;28;20985;-69
2022/06/03 07:20:16;;;;;;;2.50;2.30;;;18.30;77.90;;;;;;5063493;28;20438;-67
2022/06/03 07:22:55;;;;;;;1.63;1.53;;;18.30;77.70;;;;;;5066623;28;20451;-68
2022/06/03 07:25:29;;;;;;;2.10;2.00;;;18.30;77.90;;;;;;5067515;28;20464;-70
2022/06/03 07:28:03;;;;;;;2.17;2.00;;;18.30;77.80;;;;;;5068959;28;20995;-68
2022/06/03 07:30:54;;;;;;;4.27;1.77;;;18.30;77.50;;;;;;5074201;28;20521;-69
2022/06/03 07:33:31;;;;;;;2.00;1.80;;;18.40;77.70;;;;;;5060782;28;20462;-68
2022/06/03 07:36:01;;;;;;;1.80;1.70;;;18.50;77.70;;;;;;5058261;28;20954;-69
2022/06/03 07:38:33;;;;;;;2.00;1.90;;;18.50;77.80;;;;;;5057216;28;20464;-70
2022/06/03 07:41:09;;;;;;;1.80;1.70;;;18.50;77.90;;;;;;5049717;28;20589;-69
2022/06/03 07:44:21;;;;;;;2.00;1.90;;;18.60;77.70;;;;;;5069296;28;20464;-66
2022/06/03 07:47:00;;;;;;;1.90;1.80;;;18.70;77.90;;;;;;5047193;28;20481;-68
2022/06/03 07:49:28;;;;;;;6.03;1.87;;;18.80;77.90;;;;;;5048682;28;20452;-72
2022/06/03 07:52:01;;;;;;;1.93;1.80;;;18.80;77.90;;;;;;5066967;28;20524;-68
2022/06/03 07:54:28;;;;;;;2.50;1.83;;;18.90;78.50;;;;;;5077521;28;20504;-68
2022/06/03 07:57:07;;;;;;;4.03;2.07;;;19.00;77.80;;;;;;5043973;28;20434;-68
2022/06/03 07:59:35;;;;;;;2.13;1.73;;;19.10;78.00;;;;;;5045384;28;20591;-68
2022/06/03 08:02:16;;;;;;;2.10;1.90;;;19.20;78.00;;;;;;5068905;28;20881;-69
2022/06/03 08:04:42;;;;;;;2.00;1.60;;;19.40;77.90;;;;;;5062607;28;20803;-68
2022/06/03 08:13:39;;;;;;;1.90;1.80;;;19.60;77.80;;;;;;5065277;28;20449;-69
2022/06/03 08:16:11;;;;;;;1.93;1.83;;;19.70;77.40;;;;;;5050964;28;21032;-67
2022/06/03 08:18:42;;;;;;;2.20;2.10;;;19.80;77.50;;;;;;5073011;28;20499;-69
2022/06/03 08:21:23;;;;;;;3.23;2.27;;;19.90;77.30;;;;;;5066056;28;20461;-67
2022/06/03 08:23:51;;;;;;;3.07;1.77;;;20.00;77.60;;;;;;5066812;28;20477;-68
2022/06/03 08:26:20;;;;;;;3.63;2.17;;;20.10;77.70;;;;;;5060596;28;20549;-70
2022/06/03 08:29:10;;;;;;;4.03;2.30;;;20.20;77.80;;;;;;5061883;28;20453;-69
2022/06/03 08:31:37;;;;;;;2.43;2.20;;;20.30;77.70;;;;;;5043034;28;21022;-70
2022/06/03 08:34:06;;;;;;;3.03;2.30;;;20.30;77.50;;;;;;5061488;28;20459;-67
2022/06/03 08:36:36;;;;;;;1.97;1.87;;;20.40;77.70;;;;;;5063692;28;20473;-69
2022/06/03 08:39:02;;;;;;;2.50;2.30;;;20.60;77.70;;;;;;5048175;28;20458;-69
2022/06/03 08:41:54;;;;;;;2.47;2.27;;;20.60;77.60;;;;;;5058986;28;20507;-69
2022/06/03 08:44:25;;;;;;;2.60;2.40;;;20.70;77.90;;;;;;5050146;28;20522;-70
2022/06/03 08:46:54;;;;;;;2.10;2.00;;;20.90;78.00;;;;;;5055324;28;20446;-69
2022/06/03 08:49:25;;;;;;;2.30;2.17;;;21.00;78.00;;;;;;5063315;28;20524;-70
2022/06/03 08:51:59;;;;;;;3.13;2.03;;;21.10;77.60;;;;;;5062063;28;20449;-67
2022/06/03 08:54:50;;;;;;;2.93;2.67;;;21.20;77.50;;;;;;5060769;28;20453;-68
2022/06/03 08:57:32;;;;;;;2.03;1.93;;;21.40;77.30;;;;;;5064771;28;20464;-72
2022/06/03 09:00:07;;;;;;;2.53;2.27;;;21.40;77.40;;;;;;5058837;28;20465;-68
2022/06/03 09:02:45;;;;;;;2.60;2.50;;;21.50;77.50;;;;;;5071646;28;20491;-68
2022/06/03 09:05:30;;;;;;;2.60;2.40;;;21.60;77.70;;;;;;5057677;28;20551;-68
2022/06/03 09:08:07;;;;;;;2.13;2.03;;;21.80;77.50;;;;;;5054796;28;20450;-68
2022/06/03 09:10:52;;;;;;;2.47;2.27;;;21.80;77.00;;;;;;5083270;28;20464;-69
2022/06/03 09:13:43;;;;;;;2.00;1.90;;;22.00;77.50;;;;;;5060519;28;20464;-69
2022/06/03 09:16:11;;;;;;;2.37;2.20;;;22.20;77.60;;;;;;5056671;28;20824;-69
2022/06/03 09:18:46;;;;;;;2.43;2.23;;;22.30;77.20;;;;;;5079751;28;21053;-70
2022/06/03 09:21:14;;;;;;;2.43;2.33;;;22.30;76.90;;;;;;5058252;28;20557;-68
2022/06/03 09:23:43;;;;;;;5.13;2.30;;;22.50;76.90;;;;;;5084219;28;20986;-68
2022/06/03 09:26:32;;;;;;;2.50;2.40;;;22.60;76.90;;;;;;5048457;28;20976;-70
2022/06/03 09:29:01;;;;;;;5.77;2.83;;;22.60;77.00;;;;;;5060354;28;20988;-69
2022/06/03 09:31:27;;;;;;;2.23;2.10;;;22.70;76.90;;;;;;5080772;28;21047;-69
2022/06/03 09:33:56;;;;;;;2.43;2.33;;;22.80;76.80;;;;;;5078008;28;20504;-68
2022/06/03 09:36:23;;;;;;;3.23;2.43;;;22.90;77.00;;;;;;5066159;28;20693;-69
2022/06/03 09:38:58;;;;;;;3.33;2.30;;;23.00;76.70;;;;;;5083455;28;20460;-70
2022/06/03 09:41:31;;;;;;;2.50;2.40;;;23.10;76.50;;;;;;5066804;28;20606;-69
2022/06/03 09:43:58;;;;;;;4.20;2.50;;;23.20;76.60;;;;;;5071328;28;20563;-68
2022/06/03 09:46:29;;;;;;;4.13;2.30;;;23.40;77.70;;;;;;5067100;28;20793;-68
2022/06/03 09:48:56;;;;;;;2.73;2.53;;;23.50;76.50;;;;;;5051283;28;20449;-70
2022/06/03 09:54:13;;;;;;;2.70;2.50;;;23.60;76.10;;;;;;5068549;28;20523;-68
2022/06/03 09:56:40;;;;;;;2.70;2.50;;;23.80;76.30;;;;;;5065446;28;20453;-68
2022/06/03 09:59:09;;;;;;;2.60;2.40;;;23.80;76.30;;;;;;5080321;28;20541;-69
2022/06/03 10:01:35;;;;;;;3.10;2.90;;;23.90;76.70;;;;;;5077491;28;20844;-67
2022/06/03 10:04:06;;;;;;;2.60;2.40;;;23.90;75.00;;;;;;5071917;28;20512;-69
2022/06/03 10:06:47;;;;;;;3.03;2.83;;;23.90;76.60;;;;;;5070591;28;20206;-70
2022/06/03 10:14:43;;;;;;;2.70;2.50;;;24.30;77.50;;;;;;5064692;28;20980;-68
2022/06/03 10:17:11;;;;;;;2.93;2.73;;;24.50;76.50;;;;;;5064035;28;20424;-68
2022/06/03 10:19:37;;;;;;;4.17;2.80;;;24.60;76.30;;;;;;5058583;28;20245;-69
2022/06/03 10:22:08;;;;;;;2.80;2.60;;;24.60;76.20;;;;;;5073848;28;20827;-70
2022/06/03 10:24:34;;;;;;;3.60;2.60;;;24.70;76.40;;;;;;5058603;28;20473;-69
2022/06/03 10:27:03;;;;;;;3.00;2.80;;;24.80;76.40;;;;;;5061709;28;20567;-68
2022/06/03 10:29:30;;;;;;;3.27;2.73;;;25.00;76.30;;;;;;5062605;28;20492;-68
2022/06/03 10:32:02;;;;;;;2.97;2.77;;;25.10;76.00;;;;;;5066738;28;20456;-70
2022/06/03 10:34:34;;;;;;;3.37;3.07;;;25.10;75.70;;;;;;5058121;28;20454;-71
2022/06/03 10:37:00;;;;;;;3.10;2.90;;;25.20;75.60;;;;;;5062207;28;20488;-70
2022/06/03 10:39:28;;;;;;;2.60;2.50;;;25.40;75.70;;;;;;5081107;28;20961;-69
2022/06/03 10:41:58;;;;;;;3.37;3.17;;;25.40;75.80;;;;;;5051053;28;20555;-67
2022/06/03 10:44:27;;;;;;;6.43;2.90;;;25.40;76.40;;;;;;5059251;28;20468;-69
2022/06/03 10:47:12;;;;;;;3.17;2.97;;;25.40;75.60;;;;;;5066919;28;20507;-68
2022/06/03 10:49:53;;;;;;;3.40;3.10;;;25.40;75.70;;;;;;5076353;28;20452;-68
2022/06/03 11:01:19;;;;;;;3.67;3.03;;;25.50;75.50;;;;;;5072241;28;20458;-69
2022/06/03 11:03:49;;;;;;;3.90;3.10;;;25.60;75.50;;;;;;5049828;28;20858;-70
2022/06/03 11:06:17;;;;;;;2.90;2.70;;;25.60;75.70;;;;;;5051661;28;20536;-69
2022/06/03 11:08:50;;;;;;;3.50;3.20;;;25.60;75.90;;;;;;5066267;28;20880;-69
2022/06/03 11:11:30;;;;;;;3.20;2.90;;;25.80;75.80;;;;;;5058205;28;20459;-68
2022/06/03 11:13:56;;;;;;;3.60;3.30;;;25.80;75.70;;;;;;5062571;28;20454;-68
2022/06/03 11:16:24;;;;;;;3.40;3.20;;;25.80;75.40;;;;;;5068627;28;20515;-68
2022/06/03 11:18:50;;;;;;;4.00;3.70;;;25.80;75.30;;;;;;5060175;28;20302;-68
2022/06/03 11:21:23;;;;;;;3.20;3.00;;;25.80;75.40;;;;;;5055882;28;20528;-70
2022/06/03 11:23:50;;;;;;;3.50;3.30;;;25.80;75.90;;;;;;5067973;28;20461;-68
2022/06/03 11:26:16;;;;;;;3.53;3.20;;;25.80;76.30;;;;;;5058557;28;20870;-69
2022/06/03 11:28:53;;;;;;;3.00;2.83;;;25.90;76.70;;;;;;5046698;28;20484;-68
2022/06/03 11:31:32;;;;;;;15.40;3.30;;;26.00;76.60;;;;;;5043948;28;20222;-67
2022/06/03 11:34:06;;;;;;;4.13;3.47;;;26.10;76.40;;;;;;5082995;28;20545;-68
2022/06/03 11:36:38;;;;;;;5.13;3.23;;;26.20;76.30;;;;;;5063178;28;20468;-69
2022/06/03 11:39:27;;;;;;;3.60;3.30;;;26.20;76.30;;;;;;5050803;28;20503;-69
2022/06/03 11:42:02;;;;;;;7.23;3.23;;;26.20;76.40;;;;;;5059501;28;20510;-70
2022/06/03 11:44:43;;;;;;;3.80;3.43;;;26.20;76.50;;;;;;5032044;28;20472;-70
2022/06/03 11:47:39;;;;;;;3.60;3.30;;;26.20;76.30;;;;;;5059158;28;20425;-68
2022/06/03 11:50:09;;;;;;;3.27;3.07;;;26.10;76.60;;;;;;5068583;28;20458;-69
2022/06/03 11:52:35;;;;;;;3.50;3.30;;;26.30;77.00;;;;;;5065786;28;20552;-68
2022/06/03 11:55:03;;;;;;;3.67;3.47;;;26.30;76.80;;;;;;5060369;28;20476;-70
2022/06/03 11:57:29;;;;;;;3.43;3.17;;;26.40;76.90;;;;;;5071104;28;20458;-68
2022/06/03 11:59:58;;;;;;;4.33;3.73;;;26.20;75.80;;;;;;5060972;28;20514;-68
2022/06/03 12:02:33;;;;;;;4.37;3.97;;;26.20;76.70;;;;;;5047805;28;20225;-70
2022/06/03 12:05:02;;;;;;;3.80;3.50;;;26.40;76.80;;;;;;5055682;28;20911;-71
2022/06/03 12:07:46;;;;;;;4.17;3.83;;;26.50;76.70;;;;;;5050230;28;20965;-69
2022/06/03 12:10:13;;;;;;;4.27;4.07;;;26.60;76.90;;;;;;5063932;28;20433;-67
2022/06/03 12:15:32;;;;;;;4.47;3.67;;;26.80;77.20;;;;;;5066042;28;20288;-68
2022/06/03 12:18:16;;;;;;;5.00;3.40;;;27.00;76.80;;;;;;5060550;28;20544;-71
2022/06/03 12:20:47;;;;;;;3.20;2.90;;;27.20;77.20;;;;;;5058017;28;20226;-71
2022/06/03 12:23:12;;;;;;;4.13;3.83;;;27.30;77.30;;;;;;5063796;28;20653;-71
2022/06/03 12:25:53;;;;;;;3.65;3.45;;;27.40;77.50;;;;;;5063436;28;20327;-70
2022/06/03 12:28:37;;;;;;;7.23;3.83;;;27.60;78.00;;;;;;5062229;28;20216;-69
2022/06/03 12:31:19;;;;;;;4.15;3.78;;;27.80;77.20;;;;;;5066910;28;20215;-68
2022/06/03 12:34:08;;;;;;;4.15;3.72;;;27.80;76.90;;;;;;5048587;28;20762;-68
2022/06/03 12:36:53;;;;;;;3.97;3.58;;;27.80;76.80;;;;;;5057004;28;20211;-68
2022/06/03 12:39:18;;;;;;;3.83;3.30;;;27.90;77.00;;;;;;5063906;28;20260;-67
2022/06/03 12:41:44;;;;;;;4.57;4.00;;;28.00;76.80;;;;;;5069398;28;20226;-69
2022/06/03 12:44:39;;;;;;;3.35;3.15;;;28.20;76.10;;;;;;5068424;28;20227;-69
2022/06/03 12:47:29;;;;;;;4.10;3.72;;;28.40;75.90;;;;;;5064899;28;20225;-71
2022/06/03 12:50:04;;;;;;;3.75;3.55;;;28.40;75.80;;;;;;5053172;28;20748;-70
2022/06/03 12:52:29;;;;;;;5.30;4.90;;;28.40;76.00;;;;;;5067298;28;20698;-69
2022/06/03 12:55:14;;;;;;;3.20;3.00;;;28.40;76.20;;;;;;5064669;28;20231;-70
2022/06/03 12:58:03;;;;;;;3.53;3.30;;;28.40;76.10;;;;;;5062913;28;20223;-68
2022/06/03 13:00:32;;;;;;;4.07;3.67;;;28.50;76.20;;;;;;5064614;28;20222;-69
2022/06/03 13:03:01;;;;;;;3.83;3.53;;;28.50;76.10;;;;;;5076318;28;20218;-69
2022/06/03 13:05:40;;;;;;;3.78;3.58;;;28.50;75.80;;;;;;5067973;28;20227;-68
2022/06/03 13:08:29;;;;;;;5.03;4.10;;;28.50;76.00;;;;;;5058163;28;20220;-72
2022/06/03 13:10:59;;;;;;;4.22;3.92;;;28.60;75.50;;;;;;5057030;28;20311;-70
2022/06/03 13:13:29;;;;;;;3.63;3.42;;;28.60;75.90;;;;;;5067494;28;20214;-68
2022/06/03 13:16:17;;;;;;;4.10;3.80;;;28.60;75.70;;;;;;5068619;28;20212;-70
2022/06/03 13:18:50;;;;;;;3.50;3.30;;;28.60;75.50;;;;;;5062637;28;20210;-68
2022/06/03 13:21:18;;;;;;;3.88;3.60;;;28.60;75.30;;;;;;5067006;28;20703;-68
2022/06/03 13:23:47;;;;;;;4.45;4.05;;;28.60;75.10;;;;;;5042195;28;20215;-69
2022/06/03 13:26:25;;;;;;;4.78;3.88;;;28.60;75.20;;;;;;5066974;28;20817;-69
2022/06/03 13:29:08;;;;;;;4.18;3.80;;;28.60;75.10;;;;;;5063917;28;20202;-68
2022/06/03 13:31:41;;;;;;;3.85;3.55;;;28.60;74.80;;;;;;5074418;28;20689;-67
2022/06/03 13:34:12;;;;;;;4.47;4.18;;;28.50;75.10;;;;;;5053201;28;20687;-68
2022/06/03 13:36:50;;;;;;;3.78;3.58;;;28.50;74.60;;;;;;5057579;28;20219;-69
2022/06/03 13:39:27;;;;;;;4.53;4.13;;;28.50;74.50;;;;;;5062791;28;20577;-69
2022/06/03 13:44:50;;;;;;;4.28;3.97;;;28.50;74.10;;;;;;5066965;28;20223;-69
2022/06/03 13:47:19;;;;;;;3.95;3.75;;;28.50;74.10;;;;;;5062185;28;20228;-68
2022/06/03 13:50:03;;;;;;;4.07;3.78;;;28.50;74.20;;;;;;5073200;28;20224;-68
2022/06/03 13:52:37;;;;;;;4.28;3.97;;;28.50;74.20;;;;;;5068618;28;20272;-67
2022/06/03 13:55:37;;;;;;;4.38;4.00;;;28.50;74.40;;;;;;5055423;28;20687;-69
2022/06/03 13:58:31;;;;;;;4.57;4.20;;;28.40;74.70;;;;;;5068906;28;20243;-69
2022/06/03 14:01:05;;;;;;;5.00;4.10;;;28.30;75.70;;;;;;5072737;28;20218;-68
2022/06/03 14:03:42;;;;;;;5.03;4.72;;;28.30;75.80;;;;;;5071851;28;20231;-69
2022/06/03 14:06:27;;;;;;;4.20;3.90;;;28.30;76.20;;;;;;5068127;28;20724;-68
2022/06/03 14:09:19;;;;;;;4.20;3.90;;;28.30;77.70;;;;;;5072537;28;20306;-68
2022/06/03 14:11:54;;;;;;;4.75;4.45;;;28.30;77.10;;;;;;5040700;28;20204;-66
2022/06/03 14:14:32;;;;;;;4.82;4.53;;;28.30;78.30;;;;;;5067005;28;20598;-67
2022/06/03 14:17:13;;;;;;;4.97;3.60;;;28.30;79.60;;;;;;5069571;28;20210;-67
2022/06/03 14:19:57;;;;;;;6.47;5.18;;;28.30;81.80;;;;;;5064070;28;20208;-69
2022/06/03 14:22:41;;;;;;;4.25;3.95;;;28.30;81.50;;;;;;5075517;28;20223;-69
2022/06/03 14:25:29;;;;;;;4.60;4.20;;;28.30;81.10;;;;;;5070249;28;20230;-68
2022/06/03 14:28:14;;;;;;;6.57;6.05;;;28.30;81.80;;;;;;5071260;28;20215;-70
2022/06/03 14:30:59;;;;;;;5.00;4.60;;;28.20;83.20;;;;;;5077905;28;20203;-69
2022/06/03 14:33:28;;;;;;;5.75;5.18;;;28.20;85.40;;;;;;5074065;28;20242;-68
2022/06/03 14:36:00;;;;;;;5.15;4.57;;;28.20;86.50;;;;;;5073424;28;20218;-68